Sohar, Sohar Airport (OOSH)

NameSohar Airport
CitySohar
CountryOman
ICAOOOSH
IATAOHS
Altitude44 m
CoordinatesGoogle Map
Live Air TrafficLiveATC.net
METAROOSH 270450Z AUTO 27013KT //// ////// 24/09 Q1014
2020-02-27 04:50:00 Wind: West (270°) 6.69 m/s - Visibility: 2701 m - Temperature: 24 °C - Dew point: 9 °C - Humidity: 38.6% - Pressure: 1014 hPa

Sorry, no flights used the airport in this database.